createdAt,value
2019-04-04T00:01:05.790Z,7.43
2019-04-04T00:06:02.992Z,7.13
2019-04-04T00:10:56.424Z,7.30
2019-04-04T00:15:50.587Z,6.97
2019-04-04T00:20:44.301Z,6.43
2019-04-04T00:25:40.309Z,6.53
2019-04-04T00:30:34.018Z,7.30
2019-04-04T00:35:30.959Z,7.03
2019-04-04T00:40:26.757Z,6.23
2019-04-04T00:45:29.479Z,6.63
2019-04-04T00:50:45.942Z,6.83
2019-04-04T00:56:33.208Z,7.83
2019-04-04T01:01:27.152Z,6.83
2019-04-04T01:06:21.324Z,7.00
2019-04-04T01:11:18.239Z,7.00
2019-04-04T01:16:33.337Z,6.87
2019-04-04T01:21:27.082Z,7.30
2019-04-04T01:26:20.638Z,7.23
2019-04-04T01:31:15.547Z,7.23
2019-04-04T01:36:09.110Z,7.43
2019-04-04T01:41:04.410Z,7.67
2019-04-04T01:45:58.266Z,7.87
2019-04-04T01:50:53.462Z,8.10
2019-04-04T01:55:47.192Z,8.40
2019-04-04T02:00:40.691Z,8.10
2019-04-04T02:05:34.154Z,8.70
2019-04-04T02:10:27.739Z,8.77
2019-04-04T02:15:21.200Z,9.33
2019-04-04T02:20:14.674Z,8.23
2019-04-04T02:25:08.267Z,8.33
2019-04-04T02:30:01.737Z,8.77
2019-04-04T02:34:55.130Z,8.90
2019-04-04T02:39:48.619Z,8.87
2019-04-04T02:44:42.141Z,8.07
2019-04-04T02:49:35.785Z,9.43
2019-04-04T02:54:29.366Z,8.57
2019-04-04T02:59:22.791Z,8.57
2019-04-04T03:04:16.293Z,8.90
2019-04-04T03:09:10.464Z,8.63
2019-04-04T03:14:04.680Z,7.57
2019-04-04T03:18:58.383Z,7.93
2019-04-04T03:23:51.850Z,9.00
2019-04-04T03:28:45.360Z,9.30
2019-04-04T03:33:39.031Z,9.63
2019-04-04T03:38:32.504Z,9.93
2019-04-04T03:43:26.645Z,10.43
2019-04-04T03:48:20.508Z,9.43
2019-04-04T03:53:17.336Z,9.73
2019-04-04T03:58:09.611Z,9.77
2019-04-04T04:03:03.302Z,8.60
2019-04-04T04:07:56.871Z,9.57
2019-04-04T04:12:50.318Z,9.37
2019-04-04T04:17:45.438Z,8.70
2019-04-04T04:22:39.407Z,8.57
2019-04-04T04:27:34.673Z,8.33
2019-04-04T04:32:28.060Z,8.57
2019-04-04T04:37:21.654Z,9.23
2019-04-04T04:42:15.353Z,8.73
2019-04-04T04:47:09.079Z,8.07
2019-04-04T04:52:02.706Z,8.57
2019-04-04T04:56:56.177Z,9.10
2019-04-04T05:01:50.501Z,7.80
2019-04-04T05:06:45.017Z,9.37
2019-04-04T05:11:38.608Z,8.57
2019-04-04T05:16:32.117Z,8.40
2019-04-04T05:21:28.646Z,8.60
2019-04-04T05:26:20.802Z,8.43
2019-04-04T05:31:14.304Z,8.20
2019-04-04T05:36:07.755Z,7.80
2019-04-04T05:41:01.519Z,8.27
2019-04-04T05:45:54.999Z,8.13
2019-04-04T05:50:48.659Z,8.20
2019-04-04T05:55:42.478Z,8.17
2019-04-04T06:00:37.158Z,8.20
2019-04-04T06:05:31.896Z,7.97
2019-04-04T06:10:28.819Z,8.03
2019-04-04T06:15:22.373Z,8.27
2019-04-04T06:20:16.073Z,8.03
2019-04-04T06:25:09.655Z,8.20
2019-04-04T06:30:03.550Z,7.97
2019-04-04T06:34:57.174Z,8.10
2019-04-04T06:39:50.629Z,8.27
2019-04-04T06:44:44.451Z,8.80
2019-04-04T06:49:37.996Z,9.17
2019-04-04T06:54:31.533Z,8.97
2019-04-04T06:59:25.673Z,8.43
2019-04-04T07:04:19.341Z,9.27
2019-04-04T07:09:13.547Z,8.23
2019-04-04T07:14:07.300Z,8.93
2019-04-04T07:19:00.975Z,8.50
2019-04-04T07:23:54.508Z,9.07
2019-04-04T07:28:49.637Z,8.77
2019-04-04T07:33:43.400Z,9.07
2019-04-04T07:38:37.087Z,8.87
2019-04-04T07:43:30.551Z,8.83
2019-04-04T07:48:24.025Z,8.37
2019-04-04T07:53:19.881Z,8.53
2019-04-04T07:58:13.448Z,8.63
2019-04-04T08:03:07.027Z,7.60
2019-04-04T08:08:00.730Z,8.80
2019-04-04T08:12:54.207Z,8.67
2019-04-04T08:17:47.630Z,9.50
2019-04-04T08:22:41.166Z,10.00
2019-04-04T08:27:34.792Z,9.03
2019-04-04T08:32:28.662Z,9.93
2019-04-04T08:37:22.222Z,8.93
2019-04-04T08:42:15.934Z,9.13
2019-04-04T08:47:09.338Z,9.43
2019-04-04T08:52:02.818Z,8.40
2019-04-04T08:56:56.346Z,8.10
2019-04-04T09:01:49.806Z,8.43
2019-04-04T09:06:43.296Z,9.13
2019-04-04T09:11:36.791Z,9.00
2019-04-04T09:16:30.271Z,8.83
2019-04-04T09:21:23.789Z,8.87
2019-04-04T09:26:17.688Z,9.17
2019-04-04T09:31:11.156Z,8.63
2019-04-04T09:36:04.815Z,8.67
2019-04-04T09:40:58.616Z,8.53
2019-04-04T09:45:52.310Z,8.43
2019-04-04T09:50:45.836Z,7.87
2019-04-04T09:55:39.309Z,7.17
2019-04-04T10:00:32.903Z,8.00
2019-04-04T10:05:26.249Z,7.27
2019-04-04T10:10:20.145Z,6.67
2019-04-04T10:15:15.265Z,6.83
2019-04-04T10:20:09.093Z,7.10
2019-04-04T10:25:02.533Z,7.00
2019-04-04T10:29:56.981Z,6.20
2019-04-04T10:34:50.240Z,7.33
2019-04-04T10:39:43.828Z,6.83
2019-04-04T10:44:37.477Z,7.27
2019-04-04T10:49:31.266Z,7.50
2019-04-04T10:54:26.111Z,7.37
2019-04-04T10:59:20.197Z,7.33
2019-04-04T11:04:13.608Z,8.03
2019-04-04T11:09:07.661Z,7.03
2019-04-04T11:14:01.221Z,8.07
2019-04-04T11:18:54.671Z,7.27
2019-04-04T11:23:48.223Z,7.40
2019-04-04T11:28:41.900Z,7.73
2019-04-04T11:33:35.539Z,7.70
2019-04-04T11:38:29.148Z,7.50
2019-04-04T11:43:22.810Z,7.63
2019-04-04T11:48:16.251Z,7.60
2019-04-04T11:53:10.009Z,7.33
2019-04-04T11:58:03.287Z,7.30
2019-04-04T12:02:56.645Z,7.10
2019-04-04T12:07:50.153Z,7.33
2019-04-04T12:12:44.120Z,7.70
2019-04-04T12:17:37.743Z,7.60
2019-04-04T12:22:31.285Z,7.13
2019-04-04T12:27:24.672Z,6.70
2019-04-04T12:32:18.056Z,6.93
2019-04-04T12:37:11.408Z,7.30
2019-04-04T12:42:05.076Z,7.07
2019-04-04T12:46:58.617Z,7.30
2019-04-04T12:51:52.226Z,4.87
2019-04-04T12:56:45.903Z,5.30
2019-04-04T13:01:39.421Z,5.77
2019-04-04T13:06:32.931Z,5.93
2019-04-04T13:11:26.146Z,7.60
2019-04-04T13:16:19.723Z,7.53
2019-04-04T13:21:13.332Z,8.07
2019-04-04T13:26:07.052Z,7.13
2019-04-04T13:31:00.515Z,7.20
2019-04-04T13:35:54.103Z,7.40
2019-04-04T13:40:47.790Z,7.10
2019-04-04T13:45:41.169Z,6.73
2019-04-04T13:50:34.250Z,6.70
2019-04-04T13:55:27.973Z,6.43
2019-04-04T14:00:21.804Z,6.80
2019-04-04T14:05:15.056Z,6.50
2019-04-04T14:10:08.359Z,5.67
2019-04-04T14:15:01.784Z,6.67
2019-04-04T14:19:55.204Z,6.80
2019-04-04T14:24:48.700Z,6.87
2019-04-04T14:29:42.146Z,7.03
2019-04-04T14:34:35.638Z,6.47
2019-04-04T14:39:29.133Z,7.03
2019-04-04T14:44:22.658Z,6.50
2019-04-04T14:49:16.112Z,7.67
2019-04-04T14:54:09.734Z,7.00
2019-04-04T14:59:03.164Z,7.50
2019-04-04T15:03:56.541Z,7.43
2019-04-04T15:08:50.012Z,7.23
2019-04-04T15:13:43.469Z,7.50
2019-04-04T15:18:37.066Z,6.77
2019-04-04T15:23:30.761Z,5.80
2019-04-04T15:28:26.134Z,5.83
2019-04-04T15:33:19.476Z,5.57
2019-04-04T15:38:13.242Z,5.30
2019-04-04T15:43:06.810Z,5.13
2019-04-04T15:48:00.321Z,5.30
2019-04-04T15:52:53.793Z,5.83
2019-04-04T15:57:47.474Z,5.67
2019-04-04T16:02:40.945Z,5.83
2019-04-04T16:07:34.320Z,5.57
2019-04-04T16:12:27.913Z,5.53
2019-04-04T16:17:21.492Z,6.37
2019-04-04T16:22:15.077Z,6.20
2019-04-04T16:27:08.735Z,6.77
2019-04-04T16:32:02.215Z,6.90
2019-04-04T16:36:55.603Z,7.10
2019-04-04T16:42:01.212Z,8.20
2019-04-04T16:46:44.392Z,7.00
2019-04-04T16:51:37.775Z,7.30
2019-04-04T16:56:31.174Z,7.40
2019-04-04T17:01:24.657Z,6.63
2019-04-04T17:06:18.144Z,7.27
2019-04-04T17:11:11.613Z,7.67
2019-04-04T17:16:05.308Z,8.10
2019-04-04T17:20:58.927Z,9.00
2019-04-04T17:25:52.451Z,8.07
2019-04-04T17:30:46.258Z,7.90
2019-04-04T17:35:39.722Z,8.27
2019-04-04T17:40:33.581Z,8.23
2019-04-04T17:45:27.601Z,8.30
2019-04-04T17:50:21.301Z,8.87
2019-04-04T17:55:15.086Z,8.60
2019-04-04T18:00:11.483Z,8.87
2019-04-04T18:05:05.970Z,9.60
2019-04-04T18:09:59.365Z,8.40
2019-04-04T18:14:52.882Z,8.70
2019-04-04T18:19:46.320Z,9.27
2019-04-04T18:24:39.911Z,9.30
2019-04-04T18:29:33.313Z,9.90
2019-04-04T18:34:26.926Z,9.40
2019-04-04T18:39:20.476Z,9.50
2019-04-04T18:44:13.876Z,9.83
2019-04-04T18:49:07.293Z,9.57
2019-04-04T18:54:00.804Z,9.07
2019-04-04T18:58:54.346Z,10.83
2019-04-04T19:03:47.935Z,10.70
2019-04-04T19:08:41.563Z,9.60
2019-04-04T19:13:44.271Z,11.60
2019-04-04T19:18:34.925Z,11.40
2019-04-04T19:23:29.171Z,11.93
2019-04-04T19:28:22.831Z,11.43
2019-04-04T19:33:17.375Z,11.23
2019-04-04T19:38:10.990Z,11.50
2019-04-04T19:43:17.214Z,12.00
2019-04-04T19:48:00.525Z,13.40
2019-04-04T19:52:54.046Z,12.27
2019-04-04T19:57:47.828Z,13.50
2019-04-04T20:02:44.415Z,12.27
2019-04-04T20:07:38.035Z,11.53
2019-04-04T20:12:31.920Z,11.37
2019-04-04T20:17:25.288Z,11.70
2019-04-04T20:22:18.854Z,12.43
2019-04-04T20:27:12.362Z,12.27
2019-04-04T20:32:05.938Z,12.03
2019-04-04T20:36:59.658Z,11.77
2019-04-04T20:41:53.157Z,11.83
2019-04-04T20:46:49.079Z,14.03
2019-04-04T20:51:42.620Z,12.63
2019-04-04T20:56:36.101Z,12.33
2019-04-04T21:01:29.830Z,12.53
2019-04-04T21:06:23.321Z,12.33
2019-04-04T21:11:17.863Z,13.50
2019-04-04T21:16:11.145Z,12.53
2019-04-04T21:21:04.826Z,13.80
2019-04-04T21:25:58.391Z,13.87
2019-04-04T21:30:52.078Z,14.70
2019-04-04T21:35:45.565Z,13.10
2019-04-04T21:40:39.262Z,12.70
2019-04-04T21:45:32.825Z,11.63
2019-04-04T21:50:26.429Z,11.80
2019-04-04T21:55:20.009Z,11.73
2019-04-04T22:00:14.015Z,11.47
2019-04-04T22:05:08.557Z,11.00
2019-04-04T22:10:02.583Z,12.20
2019-04-04T22:14:56.209Z,11.83
2019-04-04T22:19:49.770Z,11.33
2019-04-04T22:24:43.721Z,11.53
2019-04-04T22:29:37.267Z,11.90
2019-04-04T22:34:30.981Z,12.47
2019-04-04T22:39:24.915Z,12.10
2019-04-04T22:44:18.934Z,12.07
2019-04-04T22:49:12.736Z,12.37
2019-04-04T22:54:06.320Z,11.30
2019-04-04T22:59:00.295Z,11.33
2019-04-04T23:03:53.971Z,11.63
2019-04-04T23:08:47.652Z,10.80
2019-04-04T23:13:41.270Z,11.07
2019-04-04T23:18:34.956Z,10.97
2019-04-04T23:23:28.684Z,10.43
2019-04-04T23:28:22.391Z,12.67
2019-04-04T23:33:16.017Z,11.57
2019-04-04T23:38:09.574Z,11.83
2019-04-04T23:43:07.065Z,10.10
2019-04-04T23:48:01.450Z,10.57
2019-04-04T23:52:55.149Z,10.33
2019-04-04T23:57:51.274Z,10.27
